sensor_id;sensor_type;location;lat;lon;timestamp;P1;durP1;ratioP1;P2;durP2;ratioP2
76818;SDS011;65772;51.096;17.006;2023-08-21T00:01:14;15.90;;;9.70;;
76818;SDS011;65772;51.096;17.006;2023-08-21T00:03:44;12.50;;;9.70;;
76818;SDS011;65772;51.096;17.006;2023-08-21T00:06:15;15.30;;;10.00;;
76818;SDS011;65772;51.096;17.006;2023-08-21T00:08:46;12.60;;;9.60;;
76818;SDS011;65772;51.096;17.006;2023-08-21T00:11:16;12.60;;;9.60;;
76818;SDS011;65772;51.096;17.006;2023-08-21T00:13:47;13.20;;;9.70;;
76818;SDS011;65772;51.096;17.006;2023-08-21T00:16:17;15.90;;;9.90;;
76818;SDS011;65772;51.096;17.006;2023-08-21T00:18:48;14.30;;;10.80;;
76818;SDS011;65772;51.096;17.006;2023-08-21T00:21:18;12.20;;;10.00;;
76818;SDS011;65772;51.096;17.006;2023-08-21T00:23:49;11.40;;;9.50;;
76818;SDS011;65772;51.096;17.006;2023-08-21T00:26:19;14.80;;;10.20;;
76818;SDS011;65772;51.096;17.006;2023-08-21T00:28:50;13.30;;;10.10;;
76818;SDS011;65772;51.096;17.006;2023-08-21T00:31:20;16.30;;;10.80;;
76818;SDS011;65772;51.096;17.006;2023-08-21T00:33:51;12.20;;;10.30;;
76818;SDS011;65772;51.096;17.006;2023-08-21T00:36:21;14.50;;;10.90;;
76818;SDS011;65772;51.096;17.006;2023-08-21T00:38:52;15.10;;;10.20;;
76818;SDS011;65772;51.096;17.006;2023-08-21T00:41:23;11.70;;;9.90;;
76818;SDS011;65772;51.096;17.006;2023-08-21T00:43:54;15.10;;;10.10;;
76818;SDS011;65772;51.096;17.006;2023-08-21T00:46:25;15.90;;;10.40;;
76818;SDS011;65772;51.096;17.006;2023-08-21T00:48:56;13.20;;;10.40;;
76818;SDS011;65772;51.096;17.006;2023-08-21T00:51:27;12.00;;;9.70;;
76818;SDS011;65772;51.096;17.006;2023-08-21T00:53:58;14.00;;;9.80;;
76818;SDS011;65772;51.096;17.006;2023-08-21T00:56:29;12.00;;;10.60;;
76818;SDS011;65772;51.096;17.006;2023-08-21T00:59:00;14.00;;;10.30;;
76818;SDS011;65772;51.096;17.006;2023-08-21T01:01:31;15.00;;;10.40;;
76818;SDS011;65772;51.096;17.006;2023-08-21T01:04:04;13.60;;;10.70;;
76818;SDS011;65772;51.096;17.006;2023-08-21T01:06:36;15.40;;;10.60;;
76818;SDS011;65772;51.096;17.006;2023-08-21T01:09:08;17.10;;;10.60;;
76818;SDS011;65772;51.096;17.006;2023-08-21T01:11:49;14.00;;;9.80;;
76818;SDS011;65772;51.096;17.006;2023-08-21T01:14:27;11.10;;;8.90;;
76818;SDS011;65772;51.096;17.006;2023-08-21T01:17:12;12.10;;;10.20;;
76818;SDS011;65772;51.096;17.006;2023-08-21T01:19:47;13.50;;;10.10;;
76818;SDS011;65772;51.096;17.006;2023-08-21T01:22:19;14.40;;;10.40;;
76818;SDS011;65772;51.096;17.006;2023-08-21T01:24:53;13.00;;;10.70;;
76818;SDS011;65772;51.096;17.006;2023-08-21T01:27:24;11.60;;;9.80;;
76818;SDS011;65772;51.096;17.006;2023-08-21T01:29:56;13.90;;;10.00;;
76818;SDS011;65772;51.096;17.006;2023-08-21T01:32:27;16.10;;;10.50;;
76818;SDS011;65772;51.096;17.006;2023-08-21T01:35:05;13.10;;;10.20;;
76818;SDS011;65772;51.096;17.006;2023-08-21T01:37:38;13.20;;;10.30;;
76818;SDS011;65772;51.096;17.006;2023-08-21T01:40:10;16.20;;;10.50;;
76818;SDS011;65772;51.096;17.006;2023-08-21T01:42:41;12.40;;;10.80;;
76818;SDS011;65772;51.096;17.006;2023-08-21T01:45:14;16.60;;;11.50;;
76818;SDS011;65772;51.096;17.006;2023-08-21T01:47:45;15.10;;;11.50;;
76818;SDS011;65772;51.096;17.006;2023-08-21T01:50:15;12.90;;;11.00;;
76818;SDS011;65772;51.096;17.006;2023-08-21T01:52:46;16.10;;;11.30;;
76818;SDS011;65772;51.096;17.006;2023-08-21T01:55:17;14.60;;;11.40;;
76818;SDS011;65772;51.096;17.006;2023-08-21T01:57:49;11.90;;;10.30;;
76818;SDS011;65772;51.096;17.006;2023-08-21T02:00:20;13.40;;;11.90;;
76818;SDS011;65772;51.096;17.006;2023-08-21T02:02:50;17.00;;;12.00;;
76818;SDS011;65772;51.096;17.006;2023-08-21T02:05:21;18.50;;;12.80;;
76818;SDS011;65772;51.096;17.006;2023-08-21T02:07:52;16.50;;;12.50;;
76818;SDS011;65772;51.096;17.006;2023-08-21T02:10:22;16.90;;;13.50;;
76818;SDS011;65772;51.096;17.006;2023-08-21T02:12:52;15.60;;;12.60;;
76818;SDS011;65772;51.096;17.006;2023-08-21T02:15:23;15.00;;;12.50;;
76818;SDS011;65772;51.096;17.006;2023-08-21T02:17:54;15.70;;;12.80;;
76818;SDS011;65772;51.096;17.006;2023-08-21T02:20:24;16.60;;;13.10;;
76818;SDS011;65772;51.096;17.006;2023-08-21T02:22:55;17.70;;;13.20;;
76818;SDS011;65772;51.096;17.006;2023-08-21T02:25:25;16.80;;;13.20;;
76818;SDS011;65772;51.096;17.006;2023-08-21T02:27:56;16.40;;;12.70;;
76818;SDS011;65772;51.096;17.006;2023-08-21T02:30:26;18.10;;;13.70;;
76818;SDS011;65772;51.096;17.006;2023-08-21T02:32:57;16.60;;;12.90;;
76818;SDS011;65772;51.096;17.006;2023-08-21T02:35:28;18.40;;;13.90;;
76818;SDS011;65772;51.096;17.006;2023-08-21T02:37:58;19.40;;;14.20;;
76818;SDS011;65772;51.096;17.006;2023-08-21T02:40:29;19.60;;;14.10;;
76818;SDS011;65772;51.096;17.006;2023-08-21T02:42:59;17.60;;;14.40;;
76818;SDS011;65772;51.096;17.006;2023-08-21T02:45:30;22.10;;;14.50;;
76818;SDS011;65772;51.096;17.006;2023-08-21T02:48:00;18.80;;;13.60;;
76818;SDS011;65772;51.096;17.006;2023-08-21T02:50:31;14.50;;;11.20;;
76818;SDS011;65772;51.096;17.006;2023-08-21T02:53:02;12.80;;;9.30;;
76818;SDS011;65772;51.096;17.006;2023-08-21T02:55:33;13.10;;;8.80;;
76818;SDS011;65772;51.096;17.006;2023-08-21T02:58:03;11.20;;;8.10;;
76818;SDS011;65772;51.096;17.006;2023-08-21T03:00:35;14.50;;;8.80;;
76818;SDS011;65772;51.096;17.006;2023-08-21T03:03:06;10.80;;;8.40;;
76818;SDS011;65772;51.096;17.006;2023-08-21T03:05:36;11.50;;;7.30;;
76818;SDS011;65772;51.096;17.006;2023-08-21T03:08:07;9.10;;;6.70;;
76818;SDS011;65772;51.096;17.006;2023-08-21T03:10:39;10.90;;;6.30;;
76818;SDS011;65772;51.096;17.006;2023-08-21T03:13:09;11.20;;;6.20;;
76818;SDS011;65772;51.096;17.006;2023-08-21T03:15:40;10.10;;;6.50;;
76818;SDS011;65772;51.096;17.006;2023-08-21T03:18:11;11.30;;;7.20;;
76818;SDS011;65772;51.096;17.006;2023-08-21T03:20:45;12.00;;;7.20;;
76818;SDS011;65772;51.096;17.006;2023-08-21T03:23:16;9.80;;;6.70;;
76818;SDS011;65772;51.096;17.006;2023-08-21T03:25:46;9.20;;;5.90;;
76818;SDS011;65772;51.096;17.006;2023-08-21T03:28:17;8.80;;;6.20;;
76818;SDS011;65772;51.096;17.006;2023-08-21T03:30:47;10.00;;;5.80;;
76818;SDS011;65772;51.096;17.006;2023-08-21T03:33:18;8.40;;;6.30;;
76818;SDS011;65772;51.096;17.006;2023-08-21T03:35:54;10.50;;;6.20;;
76818;SDS011;65772;51.096;17.006;2023-08-21T03:38:24;12.00;;;7.00;;
76818;SDS011;65772;51.096;17.006;2023-08-21T03:40:56;9.00;;;7.20;;
76818;SDS011;65772;51.096;17.006;2023-08-21T03:43:26;10.70;;;7.50;;
76818;SDS011;65772;51.096;17.006;2023-08-21T03:45:57;12.30;;;8.60;;
76818;SDS011;65772;51.096;17.006;2023-08-21T03:48:28;11.60;;;8.20;;
76818;SDS011;65772;51.096;17.006;2023-08-21T03:50:58;10.60;;;7.80;;
76818;SDS011;65772;51.096;17.006;2023-08-21T03:53:31;11.70;;;9.00;;
76818;SDS011;65772;51.096;17.006;2023-08-21T03:56:01;12.50;;;9.20;;
76818;SDS011;65772;51.096;17.006;2023-08-21T03:58:33;13.90;;;10.20;;
76818;SDS011;65772;51.096;17.006;2023-08-21T04:01:04;16.20;;;11.40;;
76818;SDS011;65772;51.096;17.006;2023-08-21T04:03:34;13.40;;;10.40;;
76818;SDS011;65772;51.096;17.006;2023-08-21T04:06:05;14.10;;;10.80;;
76818;SDS011;65772;51.096;17.006;2023-08-21T04:08:36;13.70;;;10.30;;
76818;SDS011;65772;51.096;17.006;2023-08-21T04:11:06;12.10;;;9.80;;
76818;SDS011;65772;51.096;17.006;2023-08-21T04:13:38;13.00;;;9.80;;
76818;SDS011;65772;51.096;17.006;2023-08-21T04:16:08;14.80;;;9.60;;
76818;SDS011;65772;51.096;17.006;2023-08-21T04:18:41;13.50;;;10.20;;
76818;SDS011;65772;51.096;17.006;2023-08-21T04:21:12;15.00;;;10.30;;
76818;SDS011;65772;51.096;17.006;2023-08-21T04:23:43;19.30;;;14.20;;
76818;SDS011;65772;51.096;17.006;2023-08-21T04:26:14;15.90;;;11.40;;
76818;SDS011;65772;51.096;17.006;2023-08-21T04:28:45;16.90;;;11.50;;
76818;SDS011;65772;51.096;17.006;2023-08-21T04:31:16;13.60;;;10.60;;
76818;SDS011;65772;51.096;17.006;2023-08-21T04:33:48;14.40;;;10.40;;
76818;SDS011;65772;51.096;17.006;2023-08-21T04:36:18;12.40;;;9.70;;
76818;SDS011;65772;51.096;17.006;2023-08-21T04:43:10;13.70;;;10.10;;
76818;SDS011;65772;51.096;17.006;2023-08-21T04:45:47;17.10;;;12.20;;
76818;SDS011;65772;51.096;17.006;2023-08-21T04:48:19;15.90;;;12.10;;
76818;SDS011;65772;51.096;17.006;2023-08-21T04:50:50;17.00;;;11.20;;
76818;SDS011;65772;51.096;17.006;2023-08-21T04:53:20;18.00;;;11.00;;
76818;SDS011;65772;51.096;17.006;2023-08-21T04:55:51;15.30;;;12.00;;
76818;SDS011;65772;51.096;17.006;2023-08-21T04:58:21;15.70;;;12.00;;
76818;SDS011;65772;51.096;17.006;2023-08-21T05:00:52;15.80;;;11.40;;
76818;SDS011;65772;51.096;17.006;2023-08-21T05:03:23;15.80;;;12.20;;
76818;SDS011;65772;51.096;17.006;2023-08-21T05:05:55;14.80;;;10.80;;
76818;SDS011;65772;51.096;17.006;2023-08-21T05:08:26;20.30;;;15.50;;
76818;SDS011;65772;51.096;17.006;2023-08-21T05:10:56;21.80;;;18.00;;
76818;SDS011;65772;51.096;17.006;2023-08-21T05:13:29;28.50;;;22.30;;
76818;SDS011;65772;51.096;17.006;2023-08-21T05:16:01;23.70;;;17.10;;
76818;SDS011;65772;51.096;17.006;2023-08-21T05:18:35;18.80;;;12.80;;
76818;SDS011;65772;51.096;17.006;2023-08-21T05:21:07;17.10;;;11.90;;
76818;SDS011;65772;51.096;17.006;2023-08-21T05:26:08;15.30;;;11.40;;
76818;SDS011;65772;51.096;17.006;2023-08-21T05:28:38;18.30;;;10.90;;
76818;SDS011;65772;51.096;17.006;2023-08-21T05:31:09;17.10;;;12.40;;
76818;SDS011;65772;51.096;17.006;2023-08-21T05:33:50;17.20;;;12.00;;
76818;SDS011;65772;51.096;17.006;2023-08-21T05:36:21;21.40;;;15.40;;
76818;SDS011;65772;51.096;17.006;2023-08-21T05:38:52;20.70;;;15.90;;
76818;SDS011;65772;51.096;17.006;2023-08-21T05:41:22;15.60;;;11.70;;
76818;SDS011;65772;51.096;17.006;2023-08-21T05:43:53;14.00;;;10.80;;
76818;SDS011;65772;51.096;17.006;2023-08-21T05:46:24;15.00;;;11.10;;
76818;SDS011;65772;51.096;17.006;2023-08-21T05:48:55;22.20;;;17.10;;
76818;SDS011;65772;51.096;17.006;2023-08-21T05:51:26;18.50;;;13.70;;
76818;SDS011;65772;51.096;17.006;2023-08-21T05:53:57;15.60;;;11.40;;
76818;SDS011;65772;51.096;17.006;2023-08-21T05:56:28;15.80;;;11.30;;
76818;SDS011;65772;51.096;17.006;2023-08-21T05:58:58;14.70;;;10.30;;
76818;SDS011;65772;51.096;17.006;2023-08-21T06:01:29;12.00;;;9.20;;
76818;SDS011;65772;51.096;17.006;2023-08-21T06:04:00;13.30;;;9.60;;
76818;SDS011;65772;51.096;17.006;2023-08-21T06:06:40;11.80;;;9.10;;
76818;SDS011;65772;51.096;17.006;2023-08-21T06:09:11;12.40;;;8.70;;
76818;SDS011;65772;51.096;17.006;2023-08-21T06:11:44;11.60;;;8.30;;
76818;SDS011;65772;51.096;17.006;2023-08-21T06:14:14;13.80;;;8.60;;
76818;SDS011;65772;51.096;17.006;2023-08-21T06:16:45;10.80;;;8.00;;
76818;SDS011;65772;51.096;17.006;2023-08-21T06:19:15;9.50;;;6.30;;
76818;SDS011;65772;51.096;17.006;2023-08-21T06:21:46;9.90;;;6.20;;
76818;SDS011;65772;51.096;17.006;2023-08-21T06:24:16;7.90;;;5.60;;
76818;SDS011;65772;51.096;17.006;2023-08-21T06:26:52;6.90;;;5.30;;
76818;SDS011;65772;51.096;17.006;2023-08-21T06:32:11;16.90;;;12.50;;
76818;SDS011;65772;51.096;17.006;2023-08-21T06:34:41;9.60;;;7.00;;
76818;SDS011;65772;51.096;17.006;2023-08-21T06:37:12;7.30;;;5.30;;
76818;SDS011;65772;51.096;17.006;2023-08-21T06:39:43;9.90;;;5.10;;
76818;SDS011;65772;51.096;17.006;2023-08-21T06:42:13;9.60;;;5.10;;
76818;SDS011;65772;51.096;17.006;2023-08-21T06:44:47;7.90;;;5.00;;
76818;SDS011;65772;51.096;17.006;2023-08-21T06:47:18;7.90;;;5.30;;
76818;SDS011;65772;51.096;17.006;2023-08-21T06:49:49;7.70;;;4.70;;
76818;SDS011;65772;51.096;17.006;2023-08-21T06:52:20;10.40;;;4.90;;
76818;SDS011;65772;51.096;17.006;2023-08-21T06:54:50;9.20;;;4.60;;
76818;SDS011;65772;51.096;17.006;2023-08-21T06:57:21;8.70;;;4.40;;
76818;SDS011;65772;51.096;17.006;2023-08-21T06:59:52;7.00;;;4.70;;
76818;SDS011;65772;51.096;17.006;2023-08-21T07:02:22;6.80;;;4.30;;
76818;SDS011;65772;51.096;17.006;2023-08-21T07:04:53;7.80;;;4.00;;
76818;SDS011;65772;51.096;17.006;2023-08-21T07:07:23;7.00;;;4.10;;
76818;SDS011;65772;51.096;17.006;2023-08-21T07:09:54;7.30;;;3.80;;
76818;SDS011;65772;51.096;17.006;2023-08-21T07:12:25;7.30;;;4.00;;
76818;SDS011;65772;51.096;17.006;2023-08-21T07:14:55;5.70;;;3.70;;
76818;SDS011;65772;51.096;17.006;2023-08-21T07:17:26;6.10;;;3.90;;
76818;SDS011;65772;51.096;17.006;2023-08-21T07:19:56;7.70;;;4.10;;
76818;SDS011;65772;51.096;17.006;2023-08-21T07:22:27;8.60;;;4.10;;
76818;SDS011;65772;51.096;17.006;2023-08-21T07:24:57;9.00;;;4.20;;
76818;SDS011;65772;51.096;17.006;2023-08-21T07:27:32;9.40;;;4.10;;
76818;SDS011;65772;51.096;17.006;2023-08-21T07:30:03;9.20;;;4.30;;
76818;SDS011;65772;51.096;17.006;2023-08-21T07:32:34;7.50;;;4.20;;
76818;SDS011;65772;51.096;17.006;2023-08-21T07:35:06;6.50;;;3.70;;
76818;SDS011;65772;51.096;17.006;2023-08-21T07:37:38;9.20;;;3.70;;
76818;SDS011;65772;51.096;17.006;2023-08-21T07:40:12;6.80;;;4.20;;
76818;SDS011;65772;51.096;17.006;2023-08-21T07:42:42;8.90;;;4.10;;
76818;SDS011;65772;51.096;17.006;2023-08-21T07:45:13;8.50;;;4.10;;
76818;SDS011;65772;51.096;17.006;2023-08-21T07:47:44;6.40;;;3.90;;
76818;SDS011;65772;51.096;17.006;2023-08-21T07:50:28;8.00;;;4.00;;
76818;SDS011;65772;51.096;17.006;2023-08-21T07:52:58;8.20;;;4.70;;
76818;SDS011;65772;51.096;17.006;2023-08-21T07:55:29;7.10;;;4.30;;
76818;SDS011;65772;51.096;17.006;2023-08-21T07:57:59;9.70;;;4.60;;
76818;SDS011;65772;51.096;17.006;2023-08-21T08:00:32;7.20;;;4.20;;
76818;SDS011;65772;51.096;17.006;2023-08-21T08:03:02;6.00;;;3.80;;
76818;SDS011;65772;51.096;17.006;2023-08-21T08:05:34;9.10;;;3.90;;
76818;SDS011;65772;51.096;17.006;2023-08-21T08:08:05;6.30;;;3.20;;
76818;SDS011;65772;51.096;17.006;2023-08-21T08:10:38;4.70;;;2.80;;
76818;SDS011;65772;51.096;17.006;2023-08-21T08:13:09;6.20;;;3.00;;
76818;SDS011;65772;51.096;17.006;2023-08-21T08:15:39;5.10;;;3.10;;
76818;SDS011;65772;51.096;17.006;2023-08-21T08:18:12;5.30;;;3.10;;
76818;SDS011;65772;51.096;17.006;2023-08-21T08:20:43;7.50;;;2.90;;
76818;SDS011;65772;51.096;17.006;2023-08-21T08:23:13;5.80;;;3.00;;
76818;SDS011;65772;51.096;17.006;2023-08-21T08:25:46;6.30;;;3.10;;
76818;SDS011;65772;51.096;17.006;2023-08-21T08:28:17;6.90;;;3.20;;
76818;SDS011;65772;51.096;17.006;2023-08-21T08:30:47;6.40;;;2.80;;
76818;SDS011;65772;51.096;17.006;2023-08-21T08:33:18;5.30;;;2.80;;
76818;SDS011;65772;51.096;17.006;2023-08-21T08:35:49;4.40;;;2.40;;
76818;SDS011;65772;51.096;17.006;2023-08-21T08:38:20;5.60;;;2.90;;
76818;SDS011;65772;51.096;17.006;2023-08-21T08:40:51;5.50;;;2.90;;
76818;SDS011;65772;51.096;17.006;2023-08-21T08:43:23;4.80;;;2.70;;
76818;SDS011;65772;51.096;17.006;2023-08-21T08:45:56;5.80;;;3.10;;
76818;SDS011;65772;51.096;17.006;2023-08-21T08:48:29;6.10;;;2.70;;
76818;SDS011;65772;51.096;17.006;2023-08-21T08:50:59;4.90;;;2.90;;
76818;SDS011;65772;51.096;17.006;2023-08-21T08:53:32;4.40;;;2.80;;
76818;SDS011;65772;51.096;17.006;2023-08-21T08:56:03;5.50;;;3.20;;
76818;SDS011;65772;51.096;17.006;2023-08-21T08:58:34;4.50;;;2.70;;
76818;SDS011;65772;51.096;17.006;2023-08-21T09:01:04;8.60;;;3.10;;
76818;SDS011;65772;51.096;17.006;2023-08-21T09:03:35;6.60;;;2.70;;
76818;SDS011;65772;51.096;17.006;2023-08-21T09:06:06;5.60;;;2.80;;
76818;SDS011;65772;51.096;17.006;2023-08-21T09:08:36;4.50;;;2.20;;
76818;SDS011;65772;51.096;17.006;2023-08-21T09:11:07;6.20;;;2.50;;
76818;SDS011;65772;51.096;17.006;2023-08-21T09:13:37;5.90;;;2.60;;
76818;SDS011;65772;51.096;17.006;2023-08-21T09:16:08;4.60;;;2.70;;
76818;SDS011;65772;51.096;17.006;2023-08-21T09:18:38;4.00;;;2.60;;
76818;SDS011;65772;51.096;17.006;2023-08-21T09:21:17;4.00;;;2.20;;
76818;SDS011;65772;51.096;17.006;2023-08-21T09:23:51;5.60;;;2.20;;
76818;SDS011;65772;51.096;17.006;2023-08-21T09:26:27;5.50;;;2.40;;
76818;SDS011;65772;51.096;17.006;2023-08-21T09:29:02;4.30;;;2.20;;
76818;SDS011;65772;51.096;17.006;2023-08-21T09:31:36;5.30;;;2.40;;
76818;SDS011;65772;51.096;17.006;2023-08-21T09:34:07;4.10;;;2.50;;
76818;SDS011;65772;51.096;17.006;2023-08-21T09:36:38;4.50;;;2.50;;
76818;SDS011;65772;51.096;17.006;2023-08-21T09:39:09;9.90;;;6.70;;
76818;SDS011;65772;51.096;17.006;2023-08-21T09:41:55;9.80;;;5.40;;
76818;SDS011;65772;51.096;17.006;2023-08-21T09:44:26;6.40;;;3.60;;
76818;SDS011;65772;51.096;17.006;2023-08-21T09:46:58;6.30;;;3.00;;
76818;SDS011;65772;51.096;17.006;2023-08-21T09:49:28;5.90;;;2.70;;
76818;SDS011;65772;51.096;17.006;2023-08-21T09:52:01;8.20;;;2.80;;
76818;SDS011;65772;51.096;17.006;2023-08-21T09:54:34;7.60;;;2.60;;
76818;SDS011;65772;51.096;17.006;2023-08-21T09:57:07;8.10;;;2.80;;
76818;SDS011;65772;51.096;17.006;2023-08-21T10:02:09;4.30;;;2.80;;
76818;SDS011;65772;51.096;17.006;2023-08-21T10:07:14;5.50;;;2.40;;
76818;SDS011;65772;51.096;17.006;2023-08-21T10:09:49;6.40;;;2.40;;
76818;SDS011;65772;51.096;17.006;2023-08-21T10:12:21;4.20;;;2.30;;
76818;SDS011;65772;51.096;17.006;2023-08-21T10:14:52;4.30;;;2.40;;
76818;SDS011;65772;51.096;17.006;2023-08-21T10:17:23;3.70;;;2.30;;
76818;SDS011;65772;51.096;17.006;2023-08-21T10:19:53;5.50;;;2.50;;
76818;SDS011;65772;51.096;17.006;2023-08-21T10:22:36;5.20;;;2.30;;
76818;SDS011;65772;51.096;17.006;2023-08-21T10:25:19;4.00;;;2.30;;
76818;SDS011;65772;51.096;17.006;2023-08-21T10:27:58;4.10;;;2.20;;
76818;SDS011;65772;51.096;17.006;2023-08-21T10:30:31;4.50;;;2.30;;
76818;SDS011;65772;51.096;17.006;2023-08-21T10:33:02;4.00;;;2.20;;
76818;SDS011;65772;51.096;17.006;2023-08-21T10:35:32;5.20;;;2.60;;
76818;SDS011;65772;51.096;17.006;2023-08-21T10:38:08;5.30;;;2.40;;
76818;SDS011;65772;51.096;17.006;2023-08-21T10:40:40;5.60;;;2.10;;
76818;SDS011;65772;51.096;17.006;2023-08-21T10:43:38;5.30;;;2.40;;
76818;SDS011;65772;51.096;17.006;2023-08-21T10:46:11;4.90;;;2.30;;
76818;SDS011;65772;51.096;17.006;2023-08-21T10:48:43;4.60;;;2.40;;
76818;SDS011;65772;51.096;17.006;2023-08-21T10:51:14;6.60;;;2.70;;
76818;SDS011;65772;51.096;17.006;2023-08-21T10:53:46;5.70;;;2.00;;
76818;SDS011;65772;51.096;17.006;2023-08-21T10:56:17;4.40;;;2.40;;
76818;SDS011;65772;51.096;17.006;2023-08-21T10:58:47;5.70;;;2.20;;
76818;SDS011;65772;51.096;17.006;2023-08-21T11:01:22;5.20;;;2.10;;
76818;SDS011;65772;51.096;17.006;2023-08-21T11:03:52;5.40;;;2.40;;
76818;SDS011;65772;51.096;17.006;2023-08-21T11:06:23;4.30;;;2.30;;
76818;SDS011;65772;51.096;17.006;2023-08-21T11:08:53;6.20;;;2.30;;
76818;SDS011;65772;51.096;17.006;2023-08-21T11:11:24;5.40;;;2.40;;
76818;SDS011;65772;51.096;17.006;2023-08-21T11:13:55;4.20;;;2.30;;
76818;SDS011;65772;51.096;17.006;2023-08-21T11:16:25;4.50;;;2.20;;
76818;SDS011;65772;51.096;17.006;2023-08-21T11:21:25;4.10;;;2.30;;
76818;SDS011;65772;51.096;17.006;2023-08-21T11:23:56;5.50;;;2.60;;
76818;SDS011;65772;51.096;17.006;2023-08-21T11:26:26;3.40;;;2.00;;
76818;SDS011;65772;51.096;17.006;2023-08-21T11:28:57;5.10;;;2.30;;
76818;SDS011;65772;51.096;17.006;2023-08-21T11:31:30;5.50;;;2.50;;
76818;SDS011;65772;51.096;17.006;2023-08-21T11:34:01;6.20;;;2.50;;
76818;SDS011;65772;51.096;17.006;2023-08-21T11:36:50;4.50;;;2.40;;
76818;SDS011;65772;51.096;17.006;2023-08-21T11:39:21;4.90;;;2.60;;
76818;SDS011;65772;51.096;17.006;2023-08-21T11:41:57;5.60;;;2.50;;
76818;SDS011;65772;51.096;17.006;2023-08-21T11:44:28;5.30;;;2.40;;
76818;SDS011;65772;51.096;17.006;2023-08-21T11:49:31;5.00;;;3.10;;
76818;SDS011;65772;51.096;17.006;2023-08-21T11:52:01;25.90;;;18.30;;
76818;SDS011;65772;51.096;17.006;2023-08-21T11:54:35;8.30;;;5.80;;
76818;SDS011;65772;51.096;17.006;2023-08-21T11:57:09;7.50;;;4.00;;
76818;SDS011;65772;51.096;17.006;2023-08-21T11:59:43;4.50;;;2.90;;
76818;SDS011;65772;51.096;17.006;2023-08-21T12:02:18;5.70;;;2.60;;
76818;SDS011;65772;51.096;17.006;2023-08-21T12:04:52;4.60;;;2.80;;
76818;SDS011;65772;51.096;17.006;2023-08-21T12:07:29;4.80;;;2.70;;
76818;SDS011;65772;51.096;17.006;2023-08-21T12:10:00;7.10;;;2.70;;
76818;SDS011;65772;51.096;17.006;2023-08-21T12:12:32;4.70;;;2.50;;
76818;SDS011;65772;51.096;17.006;2023-08-21T12:15:02;4.70;;;2.40;;
76818;SDS011;65772;51.096;17.006;2023-08-21T12:20:03;5.30;;;3.00;;
76818;SDS011;65772;51.096;17.006;2023-08-21T12:22:38;5.10;;;2.90;;
76818;SDS011;65772;51.096;17.006;2023-08-21T12:25:10;4.60;;;3.00;;
76818;SDS011;65772;51.096;17.006;2023-08-21T12:27:41;4.40;;;2.50;;
76818;SDS011;65772;51.096;17.006;2023-08-21T12:30:16;4.00;;;2.80;;
76818;SDS011;65772;51.096;17.006;2023-08-21T12:32:47;6.60;;;2.70;;
76818;SDS011;65772;51.096;17.006;2023-08-21T12:35:18;5.00;;;2.50;;
76818;SDS011;65772;51.096;17.006;2023-08-21T12:37:48;4.70;;;2.80;;
76818;SDS011;65772;51.096;17.006;2023-08-21T12:40:19;5.60;;;3.00;;
76818;SDS011;65772;51.096;17.006;2023-08-21T12:42:49;6.10;;;3.20;;
76818;SDS011;65772;51.096;17.006;2023-08-21T12:45:20;5.20;;;2.90;;
76818;SDS011;65772;51.096;17.006;2023-08-21T12:47:50;5.50;;;2.70;;
76818;SDS011;65772;51.096;17.006;2023-08-21T12:50:21;5.10;;;2.70;;
76818;SDS011;65772;51.096;17.006;2023-08-21T12:52:52;4.90;;;2.70;;
76818;SDS011;65772;51.096;17.006;2023-08-21T12:55:22;5.70;;;3.00;;
76818;SDS011;65772;51.096;17.006;2023-08-21T12:57:53;5.70;;;3.20;;
76818;SDS011;65772;51.096;17.006;2023-08-21T13:00:23;7.00;;;3.00;;
76818;SDS011;65772;51.096;17.006;2023-08-21T13:02:54;4.40;;;2.90;;
76818;SDS011;65772;51.096;17.006;2023-08-21T13:05:25;6.70;;;3.60;;
76818;SDS011;65772;51.096;17.006;2023-08-21T13:07:58;5.50;;;3.20;;
76818;SDS011;65772;51.096;17.006;2023-08-21T13:10:29;5.50;;;3.20;;
76818;SDS011;65772;51.096;17.006;2023-08-21T13:13:00;6.00;;;3.60;;
76818;SDS011;65772;51.096;17.006;2023-08-21T13:15:30;6.80;;;3.70;;
76818;SDS011;65772;51.096;17.006;2023-08-21T13:18:01;5.60;;;3.70;;
76818;SDS011;65772;51.096;17.006;2023-08-21T13:20:32;6.30;;;3.60;;
76818;SDS011;65772;51.096;17.006;2023-08-21T13:23:02;5.80;;;3.60;;
76818;SDS011;65772;51.096;17.006;2023-08-21T13:25:33;5.60;;;3.70;;
76818;SDS011;65772;51.096;17.006;2023-08-21T13:28:04;7.30;;;3.40;;
76818;SDS011;65772;51.096;17.006;2023-08-21T13:30:38;4.40;;;3.10;;
76818;SDS011;65772;51.096;17.006;2023-08-21T13:33:08;4.90;;;3.10;;
76818;SDS011;65772;51.096;17.006;2023-08-21T13:35:39;4.40;;;3.10;;
76818;SDS011;65772;51.096;17.006;2023-08-21T13:38:09;5.00;;;3.30;;
76818;SDS011;65772;51.096;17.006;2023-08-21T13:40:40;5.60;;;3.20;;
76818;SDS011;65772;51.096;17.006;2023-08-21T13:43:11;5.30;;;3.30;;
76818;SDS011;65772;51.096;17.006;2023-08-21T13:45:41;5.60;;;3.40;;
76818;SDS011;65772;51.096;17.006;2023-08-21T13:48:16;8.20;;;3.90;;
76818;SDS011;65772;51.096;17.006;2023-08-21T13:50:46;6.50;;;3.80;;
76818;SDS011;65772;51.096;17.006;2023-08-21T13:53:17;5.40;;;3.60;;
76818;SDS011;65772;51.096;17.006;2023-08-21T13:55:47;8.10;;;5.40;;
76818;SDS011;65772;51.096;17.006;2023-08-21T13:58:19;9.00;;;4.00;;
76818;SDS011;65772;51.096;17.006;2023-08-21T14:04:26;5.60;;;3.50;;
76818;SDS011;65772;51.096;17.006;2023-08-21T14:06:56;7.20;;;3.30;;
76818;SDS011;65772;51.096;17.006;2023-08-21T14:09:27;5.20;;;3.60;;
76818;SDS011;65772;51.096;17.006;2023-08-21T14:11:57;8.60;;;4.10;;
76818;SDS011;65772;51.096;17.006;2023-08-21T14:14:28;9.30;;;5.00;;
76818;SDS011;65772;51.096;17.006;2023-08-21T14:16:58;8.40;;;5.20;;
76818;SDS011;65772;51.096;17.006;2023-08-21T14:19:29;5.00;;;4.10;;
76818;SDS011;65772;51.096;17.006;2023-08-21T14:22:00;6.30;;;3.80;;
76818;SDS011;65772;51.096;17.006;2023-08-21T14:24:33;5.70;;;3.90;;
76818;SDS011;65772;51.096;17.006;2023-08-21T14:27:04;5.90;;;3.80;;
76818;SDS011;65772;51.096;17.006;2023-08-21T14:40:54;5.60;;;4.00;;
76818;SDS011;65772;51.096;17.006;2023-08-21T14:43:25;7.30;;;4.30;;
76818;SDS011;65772;51.096;17.006;2023-08-21T14:46:00;6.10;;;4.30;;
76818;SDS011;65772;51.096;17.006;2023-08-21T14:48:32;6.00;;;3.50;;
76818;SDS011;65772;51.096;17.006;2023-08-21T14:51:03;6.20;;;3.70;;
76818;SDS011;65772;51.096;17.006;2023-08-21T14:53:34;6.10;;;3.20;;
76818;SDS011;65772;51.096;17.006;2023-08-21T14:59:07;4.90;;;3.10;;
76818;SDS011;65772;51.096;17.006;2023-08-21T15:05:10;5.20;;;3.00;;
76818;SDS011;65772;51.096;17.006;2023-08-21T15:07:44;6.40;;;3.20;;
76818;SDS011;65772;51.096;17.006;2023-08-21T15:10:15;5.50;;;3.00;;
76818;SDS011;65772;51.096;17.006;2023-08-21T15:12:45;5.10;;;3.00;;
76818;SDS011;65772;51.096;17.006;2023-08-21T15:15:16;5.60;;;3.50;;
76818;SDS011;65772;51.096;17.006;2023-08-21T15:17:52;5.60;;;3.10;;
76818;SDS011;65772;51.096;17.006;2023-08-21T15:20:23;4.40;;;2.80;;
76818;SDS011;65772;51.096;17.006;2023-08-21T15:22:53;6.30;;;2.70;;
76818;SDS011;65772;51.096;17.006;2023-08-21T15:25:24;4.30;;;2.80;;
76818;SDS011;65772;51.096;17.006;2023-08-21T15:27:54;5.60;;;3.00;;
76818;SDS011;65772;51.096;17.006;2023-08-21T15:30:25;5.10;;;3.00;;
76818;SDS011;65772;51.096;17.006;2023-08-21T15:32:55;5.00;;;2.90;;
76818;SDS011;65772;51.096;17.006;2023-08-21T15:35:26;8.70;;;4.40;;